createdAt,value
2022-11-21T00:02:17.618Z,18.76
2022-11-21T00:07:19.436Z,18.69
2022-11-21T00:12:21.448Z,18.68
2022-11-21T00:17:23.689Z,18.74
2022-11-21T00:22:25.564Z,18.75
2022-11-21T00:27:27.635Z,18.71
2022-11-21T00:32:29.686Z,18.74
2022-11-21T00:37:34.695Z,18.74
2022-11-21T00:42:36.490Z,18.73
2022-11-21T00:47:38.504Z,18.76
2022-11-21T00:52:40.550Z,18.72
2022-11-21T00:57:42.427Z,18.74
2022-11-21T01:02:44.717Z,18.70
2022-11-21T01:07:48.755Z,18.74
2022-11-21T01:12:50.600Z,18.73
2022-11-21T01:17:52.360Z,18.68
2022-11-21T01:22:54.325Z,18.66
2022-11-21T01:27:56.259Z,18.75
2022-11-21T01:32:58.148Z,18.75
2022-11-21T01:38:00.163Z,18.76
2022-11-21T01:43:14.143Z,18.76
2022-11-21T01:48:16.221Z,18.72
2022-11-21T01:53:18.715Z,18.73
2022-11-21T01:58:22.021Z,18.70
2022-11-21T02:03:27.263Z,18.69
2022-11-21T02:08:30.064Z,18.71
2022-11-21T02:13:31.818Z,18.73
2022-11-21T02:18:33.993Z,18.77
2022-11-21T02:24:04.157Z,18.71
2022-11-21T02:29:06.080Z,18.74
2022-11-21T02:34:07.945Z,18.68
2022-11-21T02:39:34.534Z,18.70
2022-11-21T02:44:49.330Z,18.69
2022-11-21T02:50:19.715Z,18.71
2022-11-21T02:55:22.065Z,18.73
2022-11-21T03:00:24.829Z,18.74
2022-11-21T03:05:26.714Z,18.69
2022-11-21T03:10:28.568Z,18.68
2022-11-21T03:15:32.788Z,18.70
2022-11-21T03:20:35.625Z,18.73
2022-11-21T03:25:37.454Z,18.72
2022-11-21T03:30:39.347Z,18.72
2022-11-21T03:35:41.180Z,18.68
2022-11-21T03:40:43.096Z,18.71
2022-11-21T03:45:48.321Z,18.73
2022-11-21T03:50:50.172Z,18.74
2022-11-21T03:55:52.048Z,18.74
2022-11-21T04:00:53.842Z,18.72
2022-11-21T04:05:55.750Z,18.69
2022-11-21T04:10:57.683Z,18.74
2022-11-21T04:15:59.420Z,18.73
2022-11-21T04:21:06.669Z,18.76
2022-11-21T04:26:08.631Z,18.69
2022-11-21T04:31:11.412Z,18.68
2022-11-21T04:36:13.524Z,18.67
2022-11-21T04:41:15.596Z,18.66
2022-11-21T04:46:17.356Z,18.69
2022-11-21T04:51:19.311Z,18.71
2022-11-21T04:56:21.087Z,18.69
2022-11-21T05:01:23.210Z,18.74
2022-11-21T05:06:25.008Z,18.73
2022-11-21T05:11:45.167Z,18.74
2022-11-21T05:16:47.019Z,18.73
2022-11-21T05:21:48.907Z,18.71
2022-11-21T05:26:50.700Z,18.67
2022-11-21T05:31:52.606Z,18.72
2022-11-21T05:37:00.736Z,18.58
2022-11-21T05:42:03.465Z,18.42
2022-11-21T05:47:05.355Z,18.31
2022-11-21T05:52:07.123Z,18.27
2022-11-21T05:57:08.960Z,18.39
2022-11-21T06:02:29.398Z,18.56
2022-11-21T06:07:31.299Z,18.62
2022-11-21T06:12:33.163Z,18.66
2022-11-21T06:17:35.148Z,18.35
2022-11-21T06:22:37.065Z,18.32
2022-11-21T06:27:38.865Z,18.43
2022-11-21T06:32:40.843Z,18.52
2022-11-21T06:37:43.006Z,18.49
2022-11-21T06:42:45.024Z,18.53
2022-11-21T06:47:47.121Z,18.44
2022-11-21T06:52:49.152Z,18.43
2022-11-21T06:57:51.006Z,18.54
2022-11-21T07:02:52.980Z,18.44
2022-11-21T07:08:02.836Z,18.44
2022-11-21T07:13:23.297Z,18.45
2022-11-21T07:18:27.028Z,18.46
2022-11-21T07:23:29.690Z,18.54
2022-11-21T07:28:32.404Z,18.56
2022-11-21T07:33:34.579Z,18.58
2022-11-21T07:38:36.413Z,18.59
2022-11-21T07:43:38.600Z,18.61
2022-11-21T07:48:40.321Z,18.62
2022-11-21T07:53:42.221Z,18.61
2022-11-21T07:58:44.160Z,18.62
2022-11-21T08:03:46.330Z,18.59
2022-11-21T08:08:51.859Z,18.63
2022-11-21T08:13:54.009Z,18.63
2022-11-21T08:18:56.372Z,18.60
2022-11-21T08:23:58.395Z,18.63
2022-11-21T08:29:00.653Z,18.65
2022-11-21T08:34:02.905Z,18.60
2022-11-21T08:39:05.524Z,18.60
2022-11-21T08:44:13.691Z,18.62
2022-11-21T08:49:16.236Z,18.35
2022-11-21T08:54:23.021Z,18.45
2022-11-21T08:59:25.180Z,18.51
2022-11-21T09:04:27.624Z,18.49
2022-11-21T09:09:29.742Z,18.21
2022-11-21T09:14:50.473Z,18.45
2022-11-21T09:19:53.028Z,18.49
2022-11-21T09:24:55.005Z,18.49
2022-11-21T09:29:57.088Z,18.50
2022-11-21T09:34:58.890Z,18.50
2022-11-21T09:40:01.583Z,18.52
2022-11-21T09:45:15.999Z,18.54
2022-11-21T09:50:35.655Z,18.51
2022-11-21T09:55:47.300Z,18.48
2022-11-21T10:00:52.346Z,18.48
2022-11-21T10:06:18.533Z,18.52
2022-11-21T10:12:18.980Z,18.49
2022-11-21T10:17:36.132Z,18.49
2022-11-21T10:22:51.592Z,18.44
2022-11-21T10:28:03.129Z,18.44
2022-11-21T10:33:11.535Z,18.52
2022-11-21T10:38:22.807Z,18.55
2022-11-21T10:43:54.460Z,18.56
2022-11-21T10:49:00.235Z,18.60
2022-11-21T10:54:26.401Z,18.58
2022-11-21T10:59:31.461Z,18.57
2022-11-21T11:04:43.747Z,18.58
2022-11-21T11:09:48.204Z,18.55
2022-11-21T11:14:52.895Z,18.56
2022-11-21T11:20:05.793Z,18.64
2022-11-21T11:25:09.925Z,18.56
2022-11-21T11:30:16.549Z,18.57
2022-11-21T11:35:23.764Z,18.63
2022-11-21T11:40:41.050Z,18.60
2022-11-21T11:46:23.985Z,18.54
2022-11-21T11:51:30.765Z,18.53
2022-11-21T11:56:37.337Z,18.56
2022-11-21T12:01:45.775Z,18.55
2022-11-21T12:08:05.885Z,18.53
2022-11-21T12:12:37.407Z,18.56
2022-11-21T12:18:00.160Z,18.61
2022-11-21T12:23:03.280Z,18.62
2022-11-21T12:28:17.564Z,18.57
2022-11-21T12:33:23.620Z,18.54
2022-11-21T12:38:53.344Z,18.55
2022-11-21T12:44:10.122Z,18.59
2022-11-21T12:50:03.255Z,18.57
2022-11-21T12:55:08.236Z,18.57
2022-11-21T13:00:16.479Z,18.53
2022-11-21T13:05:25.585Z,18.53
2022-11-21T13:10:28.397Z,18.54
2022-11-21T13:15:42.003Z,18.55
2022-11-21T13:20:52.359Z,18.55
2022-11-21T13:25:54.291Z,18.54
2022-11-21T13:30:57.798Z,18.55
2022-11-21T13:36:00.351Z,18.54
2022-11-21T13:41:21.222Z,18.56
2022-11-21T13:47:00.870Z,18.55
2022-11-21T13:52:11.825Z,18.58
2022-11-21T13:57:25.814Z,18.57
2022-11-21T14:02:57.110Z,18.55
2022-11-21T14:08:23.716Z,18.55
2022-11-21T14:13:34.934Z,18.54
2022-11-21T14:18:39.397Z,18.60
2022-11-21T14:23:44.652Z,18.59
2022-11-21T14:28:47.654Z,18.59
2022-11-21T14:33:50.444Z,18.60
2022-11-21T14:39:20.961Z,18.59
2022-11-21T14:44:18.110Z,18.58
2022-11-21T14:49:23.628Z,18.58
2022-11-21T14:54:29.963Z,18.56
2022-11-21T14:59:39.180Z,18.59
2022-11-21T15:04:42.939Z,18.59
2022-11-21T15:10:26.968Z,18.60
2022-11-21T15:15:21.720Z,18.56
2022-11-21T15:20:24.042Z,18.63
2022-11-21T15:25:31.650Z,18.57
2022-11-21T15:30:34.723Z,18.56
2022-11-21T15:35:47.134Z,18.58
2022-11-21T15:40:59.543Z,18.58
2022-11-21T15:46:12.074Z,18.57
2022-11-21T15:51:14.592Z,18.59
2022-11-21T15:56:22.787Z,18.54
2022-11-21T16:01:27.093Z,18.59
2022-11-21T16:06:29.529Z,18.55
2022-11-21T16:11:38.124Z,18.52
2022-11-21T16:16:43.494Z,18.53
2022-11-21T16:21:45.865Z,18.59
2022-11-21T16:26:49.536Z,18.59
2022-11-21T16:31:52.667Z,18.59
2022-11-21T16:36:55.876Z,18.55
2022-11-21T16:41:57.839Z,18.54
2022-11-21T16:47:03.733Z,18.56
2022-11-21T16:52:10.869Z,18.63
2022-11-21T16:57:12.849Z,18.59
2022-11-21T17:02:16.250Z,18.61
2022-11-21T17:07:19.059Z,18.60
2022-11-21T17:12:21.515Z,18.63
2022-11-21T17:17:23.722Z,18.57
2022-11-21T17:22:25.934Z,18.56
2022-11-21T17:27:28.258Z,18.57
2022-11-21T17:32:30.367Z,18.59
2022-11-21T17:37:32.468Z,18.61
2022-11-21T17:42:35.035Z,18.64
2022-11-21T17:47:41.539Z,18.59
2022-11-21T17:52:43.710Z,18.63
2022-11-21T17:57:47.770Z,18.55
2022-11-21T18:02:50.092Z,18.58
2022-11-21T18:07:52.526Z,18.61
2022-11-21T18:12:55.956Z,18.60
2022-11-21T18:17:58.241Z,18.63
2022-11-21T18:23:00.494Z,18.59
2022-11-21T18:28:03.495Z,18.57
2022-11-21T18:33:05.409Z,18.56
2022-11-21T18:38:08.060Z,18.57
2022-11-21T18:43:11.184Z,18.60
2022-11-21T18:48:14.420Z,18.64
2022-11-21T18:53:16.881Z,18.61
2022-11-21T18:58:18.954Z,18.61
2022-11-21T19:03:21.559Z,18.61
2022-11-21T19:08:24.509Z,18.57
2022-11-21T19:13:28.306Z,18.56
2022-11-21T19:18:37.839Z,18.59
2022-11-21T19:23:44.280Z,18.57
2022-11-21T19:28:46.504Z,18.60
2022-11-21T19:33:48.430Z,18.61
2022-11-21T19:38:51.728Z,18.61
2022-11-21T19:43:56.484Z,18.61
2022-11-21T19:48:59.407Z,18.58
2022-11-21T19:54:09.359Z,18.59
2022-11-21T19:59:12.888Z,18.58
2022-11-21T20:04:14.810Z,18.59
2022-11-21T20:09:22.387Z,18.59
2022-11-21T20:14:24.469Z,18.59
2022-11-21T20:19:27.404Z,18.57
2022-11-21T20:24:29.928Z,18.56
2022-11-21T20:29:31.957Z,18.55
2022-11-21T20:34:36.179Z,18.60
2022-11-21T20:39:38.080Z,18.57
2022-11-21T20:50:02.235Z,18.59
2022-11-21T20:55:04.459Z,18.59
2022-11-21T21:00:06.864Z,18.65
2022-11-21T21:05:09.097Z,18.61
2022-11-21T21:10:11.354Z,18.65
2022-11-21T21:15:13.231Z,18.62
2022-11-21T21:20:15.428Z,18.60
2022-11-21T21:25:17.427Z,18.61
2022-11-21T21:30:19.806Z,18.60
2022-11-21T21:35:21.799Z,18.57
2022-11-21T21:40:23.742Z,18.60
2022-11-21T21:45:25.955Z,18.58
2022-11-21T21:50:27.994Z,18.61
2022-11-21T21:55:30.137Z,18.61
2022-11-21T22:00:32.460Z,18.63
2022-11-21T22:05:34.537Z,18.57
2022-11-21T22:10:36.564Z,18.61
2022-11-21T22:15:38.749Z,18.57
2022-11-21T22:20:40.669Z,18.61
2022-11-21T22:25:42.789Z,18.59
2022-11-21T22:30:54.468Z,18.60
2022-11-21T22:36:04.806Z,18.58
2022-11-21T22:41:21.856Z,18.58
2022-11-21T22:46:24.992Z,18.57
2022-11-21T22:51:31.887Z,18.56
2022-11-21T22:56:33.910Z,18.57
2022-11-21T23:01:35.848Z,18.57
2022-11-21T23:06:37.741Z,18.56
2022-11-21T23:11:41.003Z,18.57
2022-11-21T23:16:43.147Z,18.56
2022-11-21T23:21:45.303Z,18.56
2022-11-21T23:26:47.126Z,18.54
2022-11-21T23:31:48.905Z,18.56
2022-11-21T23:36:50.789Z,18.56
2022-11-21T23:41:52.749Z,18.57
2022-11-21T23:46:54.869Z,18.57
2022-11-21T23:51:56.798Z,18.58
2022-11-21T23:56:58.719Z,18.60
